sensor_id;sensor_type;location;lat;lon;timestamp;temperature;humidity
67182;DHT22;54114;53.524;49.396;2023-02-01T00:00:36;-2.80;60.30
67182;DHT22;54114;53.524;49.396;2023-02-01T00:03:02;-2.80;60.40
67182;DHT22;54114;53.524;49.396;2023-02-01T00:05:28;-2.90;60.60
67182;DHT22;54114;53.524;49.396;2023-02-01T00:07:55;-2.90;60.70
67182;DHT22;54114;53.524;49.396;2023-02-01T00:10:21;-2.90;60.80
67182;DHT22;54114;53.524;49.396;2023-02-01T00:12:47;-3.00;60.80
67182;DHT22;54114;53.524;49.396;2023-02-01T00:15:14;-3.00;61.00
67182;DHT22;54114;53.524;49.396;2023-02-01T00:17:41;-3.00;61.00
67182;DHT22;54114;53.524;49.396;2023-02-01T00:20:07;-3.10;61.00
67182;DHT22;54114;53.524;49.396;2023-02-01T00:22:34;-3.10;61.00
67182;DHT22;54114;53.524;49.396;2023-02-01T00:25:01;-3.10;61.10
67182;DHT22;54114;53.524;49.396;2023-02-01T00:27:27;-3.20;61.20
67182;DHT22;54114;53.524;49.396;2023-02-01T00:29:54;-3.20;61.20
67182;DHT22;54114;53.524;49.396;2023-02-01T00:32:21;-3.20;61.30
67182;DHT22;54114;53.524;49.396;2023-02-01T00:34:47;-3.20;61.40
67182;DHT22;54114;53.524;49.396;2023-02-01T00:37:14;-3.20;61.30
67182;DHT22;54114;53.524;49.396;2023-02-01T00:39:40;-3.20;61.30
67182;DHT22;54114;53.524;49.396;2023-02-01T00:42:06;-3.20;61.20
67182;DHT22;54114;53.524;49.396;2023-02-01T00:44:33;-3.20;61.20
67182;DHT22;54114;53.524;49.396;2023-02-01T00:47:01;-3.20;61.30
67182;DHT22;54114;53.524;49.396;2023-02-01T00:49:27;-3.30;61.20
67182;DHT22;54114;53.524;49.396;2023-02-01T00:51:54;-3.30;61.30
67182;DHT22;54114;53.524;49.396;2023-02-01T00:54:20;-3.30;61.40
67182;DHT22;54114;53.524;49.396;2023-02-01T00:56:47;-3.30;61.30
67182;DHT22;54114;53.524;49.396;2023-02-01T00:59:13;-3.30;61.40
67182;DHT22;54114;53.524;49.396;2023-02-01T01:01:40;-3.30;61.40
67182;DHT22;54114;53.524;49.396;2023-02-01T01:04:06;-3.30;61.40
67182;DHT22;54114;53.524;49.396;2023-02-01T01:06:33;-3.40;61.40
67182;DHT22;54114;53.524;49.396;2023-02-01T01:09:00;-3.40;61.50
67182;DHT22;54114;53.524;49.396;2023-02-01T01:11:29;-3.40;61.50
67182;DHT22;54114;53.524;49.396;2023-02-01T01:13:57;-3.40;61.60
67182;DHT22;54114;53.524;49.396;2023-02-01T01:16:24;-3.50;61.60
67182;DHT22;54114;53.524;49.396;2023-02-01T01:18:51;-3.50;61.60
67182;DHT22;54114;53.524;49.396;2023-02-01T01:21:19;-3.50;61.60
67182;DHT22;54114;53.524;49.396;2023-02-01T01:23:45;-3.50;61.60
67182;DHT22;54114;53.524;49.396;2023-02-01T01:26:16;-3.50;61.70
67182;DHT22;54114;53.524;49.396;2023-02-01T01:28:44;-3.60;61.70
67182;DHT22;54114;53.524;49.396;2023-02-01T01:31:11;-3.60;61.70
67182;DHT22;54114;53.524;49.396;2023-02-01T01:33:38;-3.60;61.70
67182;DHT22;54114;53.524;49.396;2023-02-01T01:36:05;-3.60;61.70
67182;DHT22;54114;53.524;49.396;2023-02-01T01:38:38;-3.70;61.50
67182;DHT22;54114;53.524;49.396;2023-02-01T01:41:05;-3.70;61.50
67182;DHT22;54114;53.524;49.396;2023-02-01T01:46:20;-3.80;61.50
67182;DHT22;54114;53.524;49.396;2023-02-01T01:51:44;-3.90;61.70
67182;DHT22;54114;53.524;49.396;2023-02-01T01:54:18;-3.90;61.70
67182;DHT22;54114;53.524;49.396;2023-02-01T01:56:51;-4.00;62.30
67182;DHT22;54114;53.524;49.396;2023-02-01T01:59:23;-4.10;61.70
67182;DHT22;54114;53.524;49.396;2023-02-01T02:01:50;-4.20;61.80
67182;DHT22;54114;53.524;49.396;2023-02-01T02:04:17;-4.20;61.80
67182;DHT22;54114;53.524;49.396;2023-02-01T02:06:50;-4.30;61.90
67182;DHT22;54114;53.524;49.396;2023-02-01T02:09:21;-4.40;61.90
67182;DHT22;54114;53.524;49.396;2023-02-01T02:11:47;-4.40;62.10
67182;DHT22;54114;53.524;49.396;2023-02-01T02:14:15;-4.50;62.10
67182;DHT22;54114;53.524;49.396;2023-02-01T02:17:26;-4.60;62.10
67182;DHT22;54114;53.524;49.396;2023-02-01T02:23:02;-4.70;62.20
67182;DHT22;54114;53.524;49.396;2023-02-01T02:26:00;-4.80;62.30
67182;DHT22;54114;53.524;49.396;2023-02-01T02:31:55;-4.90;62.40
67182;DHT22;54114;53.524;49.396;2023-02-01T02:37:26;-5.10;62.50
67182;DHT22;54114;53.524;49.396;2023-02-01T02:45:49;-5.20;62.90
67182;DHT22;54114;53.524;49.396;2023-02-01T02:48:44;-5.30;63.00
67182;DHT22;54114;53.524;49.396;2023-02-01T02:54:15;-5.40;63.10
67182;DHT22;54114;53.524;49.396;2023-02-01T02:57:03;-5.40;63.20
67182;DHT22;54114;53.524;49.396;2023-02-01T02:59:50;-5.50;63.30
67182;DHT22;54114;53.524;49.396;2023-02-01T03:02:36;-5.50;63.40
67182;DHT22;54114;53.524;49.396;2023-02-01T03:05:22;-5.60;63.40
67182;DHT22;54114;53.524;49.396;2023-02-01T03:15:56;-5.70;63.90
67182;DHT22;54114;53.524;49.396;2023-02-01T03:18:46;-5.70;64.00
67182;DHT22;54114;53.524;49.396;2023-02-01T03:21:15;-5.70;64.30
67182;DHT22;54114;53.524;49.396;2023-02-01T03:23:44;-5.80;64.30
67182;DHT22;54114;53.524;49.396;2023-02-01T03:26:13;-5.80;64.40
67182;DHT22;54114;53.524;49.396;2023-02-01T03:28:42;-5.80;64.40
67182;DHT22;54114;53.524;49.396;2023-02-01T03:31:11;-5.80;64.40
67182;DHT22;54114;53.524;49.396;2023-02-01T03:33:39;-5.80;64.30
67182;DHT22;54114;53.524;49.396;2023-02-01T03:38:54;-5.80;64.30
67182;DHT22;54114;53.524;49.396;2023-02-01T03:41:44;-5.70;64.30
67182;DHT22;54114;53.524;49.396;2023-02-01T03:47:20;-5.80;64.20
67182;DHT22;54114;53.524;49.396;2023-02-01T03:49:49;-5.80;64.10
67182;DHT22;54114;53.524;49.396;2023-02-01T03:52:21;-5.80;64.20
67182;DHT22;54114;53.524;49.396;2023-02-01T03:54:49;-5.80;64.20
67182;DHT22;54114;53.524;49.396;2023-02-01T03:57:27;-5.80;64.20
67182;DHT22;54114;53.524;49.396;2023-02-01T04:00:03;-5.80;64.30
67182;DHT22;54114;53.524;49.396;2023-02-01T04:02:33;-5.90;64.40
67182;DHT22;54114;53.524;49.396;2023-02-01T04:05:00;-5.90;64.40
67182;DHT22;54114;53.524;49.396;2023-02-01T04:07:44;-5.90;64.50
67182;DHT22;54114;53.524;49.396;2023-02-01T04:10:17;-5.80;64.60
67182;DHT22;54114;53.524;49.396;2023-02-01T04:12:43;-5.80;64.60
67182;DHT22;54114;53.524;49.396;2023-02-01T04:15:15;-5.80;64.80
67182;DHT22;54114;53.524;49.396;2023-02-01T04:17:41;-5.80;65.00
67182;DHT22;54114;53.524;49.396;2023-02-01T04:20:09;-5.80;65.00
67182;DHT22;54114;53.524;49.396;2023-02-01T04:22:42;-5.80;65.10
67182;DHT22;54114;53.524;49.396;2023-02-01T04:25:09;-5.70;65.20
67182;DHT22;54114;53.524;49.396;2023-02-01T04:27:36;-5.70;65.30
67182;DHT22;54114;53.524;49.396;2023-02-01T04:30:03;-5.70;65.30
67182;DHT22;54114;53.524;49.396;2023-02-01T04:32:30;-5.70;65.30
67182;DHT22;54114;53.524;49.396;2023-02-01T04:34:56;-5.60;65.40
67182;DHT22;54114;53.524;49.396;2023-02-01T04:37:23;-5.60;65.40
67182;DHT22;54114;53.524;49.396;2023-02-01T04:39:49;-5.60;65.40
67182;DHT22;54114;53.524;49.396;2023-02-01T04:42:15;-5.50;65.40
67182;DHT22;54114;53.524;49.396;2023-02-01T04:44:48;-5.50;65.40
67182;DHT22;54114;53.524;49.396;2023-02-01T04:47:20;-5.40;65.50
67182;DHT22;54114;53.524;49.396;2023-02-01T04:49:46;-5.40;65.40
67182;DHT22;54114;53.524;49.396;2023-02-01T04:52:13;-5.30;65.40
67182;DHT22;54114;53.524;49.396;2023-02-01T04:54:51;-5.30;65.40
67182;DHT22;54114;53.524;49.396;2023-02-01T04:57:19;-5.20;65.40
67182;DHT22;54114;53.524;49.396;2023-02-01T04:59:46;-5.20;65.30
67182;DHT22;54114;53.524;49.396;2023-02-01T05:02:12;-5.00;65.60
67182;DHT22;54114;53.524;49.396;2023-02-01T05:04:39;-4.90;65.50
67182;DHT22;54114;53.524;49.396;2023-02-01T05:07:05;-4.70;65.40
67182;DHT22;54114;53.524;49.396;2023-02-01T05:09:31;-4.50;65.30
67182;DHT22;54114;53.524;49.396;2023-02-01T05:11:58;-4.20;65.00
67182;DHT22;54114;53.524;49.396;2023-02-01T05:14:43;-4.00;64.90
67182;DHT22;54114;53.524;49.396;2023-02-01T05:17:09;-3.70;64.40
67182;DHT22;54114;53.524;49.396;2023-02-01T05:19:41;-3.50;64.00
67182;DHT22;54114;53.524;49.396;2023-02-01T05:22:08;-3.20;63.70
67182;DHT22;54114;53.524;49.396;2023-02-01T05:24:34;-3.00;63.10
67182;DHT22;54114;53.524;49.396;2023-02-01T05:27:06;-2.80;62.60
67182;DHT22;54114;53.524;49.396;2023-02-01T05:29:33;-2.50;62.20
67182;DHT22;54114;53.524;49.396;2023-02-01T05:31:59;-2.30;61.60
67182;DHT22;54114;53.524;49.396;2023-02-01T05:34:26;-2.10;61.20
67182;DHT22;54114;53.524;49.396;2023-02-01T05:36:58;-1.90;60.80
67182;DHT22;54114;53.524;49.396;2023-02-01T05:39:25;-1.80;59.80
67182;DHT22;54114;53.524;49.396;2023-02-01T05:41:51;-1.60;59.60
67182;DHT22;54114;53.524;49.396;2023-02-01T05:44:17;-1.40;59.20
67182;DHT22;54114;53.524;49.396;2023-02-01T05:46:44;-1.30;58.30
67182;DHT22;54114;53.524;49.396;2023-02-01T05:49:10;-1.20;57.70
67182;DHT22;54114;53.524;49.396;2023-02-01T05:51:36;-1.20;57.10
67182;DHT22;54114;53.524;49.396;2023-02-01T05:54:09;-1.20;56.80
67182;DHT22;54114;53.524;49.396;2023-02-01T05:56:36;-1.30;56.70
67182;DHT22;54114;53.524;49.396;2023-02-01T05:59:08;-1.40;56.40
67182;DHT22;54114;53.524;49.396;2023-02-01T06:01:42;-1.40;56.40
67182;DHT22;54114;53.524;49.396;2023-02-01T06:04:08;-1.30;56.40
67182;DHT22;54114;53.524;49.396;2023-02-01T06:06:35;-1.10;56.30
67182;DHT22;54114;53.524;49.396;2023-02-01T06:09:08;-0.90;56.10
67182;DHT22;54114;53.524;49.396;2023-02-01T06:11:34;-0.60;55.70
67182;DHT22;54114;53.524;49.396;2023-02-01T06:14:00;-0.40;55.00
67182;DHT22;54114;53.524;49.396;2023-02-01T06:16:33;-0.30;54.60
67182;DHT22;54114;53.524;49.396;2023-02-01T06:19:18;-0.30;54.10
67182;DHT22;54114;53.524;49.396;2023-02-01T06:21:44;-0.30;53.90
67182;DHT22;54114;53.524;49.396;2023-02-01T06:24:11;-0.40;54.00
67182;DHT22;54114;53.524;49.396;2023-02-01T06:26:38;-0.40;54.10
67182;DHT22;54114;53.524;49.396;2023-02-01T06:29:06;-0.40;54.30
67182;DHT22;54114;53.524;49.396;2023-02-01T06:31:33;-0.40;54.10
67182;DHT22;54114;53.524;49.396;2023-02-01T06:34:00;-0.30;53.90
67182;DHT22;54114;53.524;49.396;2023-02-01T06:36:26;-0.20;53.80
67182;DHT22;54114;53.524;49.396;2023-02-01T06:38:52;-0.10;53.80
67182;DHT22;54114;53.524;49.396;2023-02-01T06:41:19;0.00;53.70
67182;DHT22;54114;53.524;49.396;2023-02-01T06:43:46;0.10;53.30
67182;DHT22;54114;53.524;49.396;2023-02-01T06:46:12;0.20;52.60
67182;DHT22;54114;53.524;49.396;2023-02-01T06:48:50;0.20;52.50
67182;DHT22;54114;53.524;49.396;2023-02-01T06:51:24;0.30;52.30
67182;DHT22;54114;53.524;49.396;2023-02-01T06:53:52;0.40;52.10
67182;DHT22;54114;53.524;49.396;2023-02-01T06:56:18;0.50;51.80
67182;DHT22;54114;53.524;49.396;2023-02-01T06:58:45;0.60;51.40
67182;DHT22;54114;53.524;49.396;2023-02-01T07:01:11;0.60;50.60
67182;DHT22;54114;53.524;49.396;2023-02-01T07:03:38;0.70;50.30
67182;DHT22;54114;53.524;49.396;2023-02-01T07:06:05;0.70;50.00
67182;DHT22;54114;53.524;49.396;2023-02-01T07:08:33;0.70;49.90
67182;DHT22;54114;53.524;49.396;2023-02-01T07:11:07;0.80;50.20
67182;DHT22;54114;53.524;49.396;2023-02-01T07:13:35;0.80;49.90
67182;DHT22;54114;53.524;49.396;2023-02-01T07:16:02;0.90;49.90
67182;DHT22;54114;53.524;49.396;2023-02-01T07:18:30;1.00;49.70
67182;DHT22;54114;53.524;49.396;2023-02-01T07:20:57;1.10;49.60
67182;DHT22;54114;53.524;49.396;2023-02-01T07:23:27;1.20;49.60
67182;DHT22;54114;53.524;49.396;2023-02-01T07:25:54;1.30;49.20
67182;DHT22;54114;53.524;49.396;2023-02-01T07:28:21;1.30;48.60
67182;DHT22;54114;53.524;49.396;2023-02-01T07:30:48;1.30;48.60
67182;DHT22;54114;53.524;49.396;2023-02-01T07:33:18;1.30;48.60
67182;DHT22;54114;53.524;49.396;2023-02-01T07:35:45;1.40;48.60
67182;DHT22;54114;53.524;49.396;2023-02-01T07:38:12;1.50;48.50
67182;DHT22;54114;53.524;49.396;2023-02-01T07:40:39;1.60;48.00
67182;DHT22;54114;53.524;49.396;2023-02-01T07:43:06;1.60;48.00
67182;DHT22;54114;53.524;49.396;2023-02-01T07:45:34;1.70;48.00
67182;DHT22;54114;53.524;49.396;2023-02-01T07:48:01;1.80;48.10
67182;DHT22;54114;53.524;49.396;2023-02-01T07:50:28;1.90;47.80
67182;DHT22;54114;53.524;49.396;2023-02-01T07:52:55;1.90;47.60
67182;DHT22;54114;53.524;49.396;2023-02-01T07:55:21;1.90;46.90
67182;DHT22;54114;53.524;49.396;2023-02-01T07:57:47;2.00;47.00
67182;DHT22;54114;53.524;49.396;2023-02-01T08:00:14;2.00;46.90
67182;DHT22;54114;53.524;49.396;2023-02-01T08:02:59;2.10;46.80
67182;DHT22;54114;53.524;49.396;2023-02-01T08:05:26;2.20;46.70
67182;DHT22;54114;53.524;49.396;2023-02-01T08:07:53;2.30;46.80
67182;DHT22;54114;53.524;49.396;2023-02-01T08:10:19;2.40;46.90
67182;DHT22;54114;53.524;49.396;2023-02-01T08:12:45;2.40;46.80
67182;DHT22;54114;53.524;49.396;2023-02-01T08:15:17;2.50;46.40
67182;DHT22;54114;53.524;49.396;2023-02-01T08:17:50;2.70;46.30
67182;DHT22;54114;53.524;49.396;2023-02-01T08:20:17;2.80;46.10
67182;DHT22;54114;53.524;49.396;2023-02-01T08:22:44;2.90;46.00
67182;DHT22;54114;53.524;49.396;2023-02-01T08:25:10;3.00;45.40
67182;DHT22;54114;53.524;49.396;2023-02-01T08:27:37;3.00;44.90
67182;DHT22;54114;53.524;49.396;2023-02-01T08:30:04;3.10;44.50
67182;DHT22;54114;53.524;49.396;2023-02-01T08:32:33;3.20;43.90
67182;DHT22;54114;53.524;49.396;2023-02-01T08:35:00;3.20;43.60
67182;DHT22;54114;53.524;49.396;2023-02-01T08:37:26;3.30;43.30
67182;DHT22;54114;53.524;49.396;2023-02-01T08:39:52;3.30;43.20
67182;DHT22;54114;53.524;49.396;2023-02-01T08:42:19;3.40;43.10
67182;DHT22;54114;53.524;49.396;2023-02-01T08:45:04;3.50;43.20
67182;DHT22;54114;53.524;49.396;2023-02-01T08:47:30;3.70;42.80
67182;DHT22;54114;53.524;49.396;2023-02-01T08:49:57;3.80;42.70
67182;DHT22;54114;53.524;49.396;2023-02-01T08:52:23;3.90;42.90
67182;DHT22;54114;53.524;49.396;2023-02-01T08:54:50;4.10;42.80
67182;DHT22;54114;53.524;49.396;2023-02-01T08:57:16;4.20;42.60
67182;DHT22;54114;53.524;49.396;2023-02-01T08:59:43;4.30;42.70
67182;DHT22;54114;53.524;49.396;2023-02-01T09:02:13;4.40;42.60
67182;DHT22;54114;53.524;49.396;2023-02-01T09:04:41;4.50;42.60
67182;DHT22;54114;53.524;49.396;2023-02-01T09:07:08;4.70;42.20
67182;DHT22;54114;53.524;49.396;2023-02-01T09:09:35;4.90;41.70
67182;DHT22;54114;53.524;49.396;2023-02-01T09:12:02;4.90;41.50
67182;DHT22;54114;53.524;49.396;2023-02-01T09:14:29;5.00;41.40
67182;DHT22;54114;53.524;49.396;2023-02-01T09:16:55;5.10;41.40
67182;DHT22;54114;53.524;49.396;2023-02-01T09:19:22;5.20;41.10
67182;DHT22;54114;53.524;49.396;2023-02-01T09:21:54;5.30;40.90
67182;DHT22;54114;53.524;49.396;2023-02-01T09:24:33;5.50;41.00
67182;DHT22;54114;53.524;49.396;2023-02-01T09:26:59;5.60;41.00
67182;DHT22;54114;53.524;49.396;2023-02-01T09:29:26;5.70;40.70
67182;DHT22;54114;53.524;49.396;2023-02-01T09:31:52;5.80;40.60
67182;DHT22;54114;53.524;49.396;2023-02-01T09:34:24;5.80;40.30
67182;DHT22;54114;53.524;49.396;2023-02-01T09:36:51;5.80;40.00
67182;DHT22;54114;53.524;49.396;2023-02-01T09:39:18;5.90;40.20
67182;DHT22;54114;53.524;49.396;2023-02-01T09:41:48;5.90;39.90
67182;DHT22;54114;53.524;49.396;2023-02-01T09:44:22;5.90;39.40
67182;DHT22;54114;53.524;49.396;2023-02-01T09:47:03;5.80;39.10
67182;DHT22;54114;53.524;49.396;2023-02-01T09:49:33;5.80;39.10
67182;DHT22;54114;53.524;49.396;2023-02-01T09:52:08;5.70;39.00
67182;DHT22;54114;53.524;49.396;2023-02-01T09:57:19;5.80;38.80
67182;DHT22;54114;53.524;49.396;2023-02-01T09:59:57;5.90;39.00
67182;DHT22;54114;53.524;49.396;2023-02-01T10:02:31;5.90;38.30
67182;DHT22;54114;53.524;49.396;2023-02-01T10:05:02;5.80;38.60
67182;DHT22;54114;53.524;49.396;2023-02-01T10:10:14;5.80;38.90
67182;DHT22;54114;53.524;49.396;2023-02-01T10:12:54;5.80;39.00
67182;DHT22;54114;53.524;49.396;2023-02-01T10:16:24;5.80;38.90
67182;DHT22;54114;53.524;49.396;2023-02-01T10:18:42;5.80;38.90
67182;DHT22;54114;53.524;49.396;2023-02-01T10:27:23;5.90;38.30
67182;DHT22;54114;53.524;49.396;2023-02-01T10:29:57;5.90;37.90
67182;DHT22;54114;53.524;49.396;2023-02-01T10:32:32;5.90;38.10
67182;DHT22;54114;53.524;49.396;2023-02-01T10:37:39;6.10;37.80
67182;DHT22;54114;53.524;49.396;2023-02-01T10:40:21;6.20;37.70
67182;DHT22;54114;53.524;49.396;2023-02-01T10:42:54;6.40;37.70
67182;DHT22;54114;53.524;49.396;2023-02-01T10:45:23;6.50;37.30
67182;DHT22;54114;53.524;49.396;2023-02-01T10:47:52;6.70;37.10
67182;DHT22;54114;53.524;49.396;2023-02-01T10:52:59;6.70;36.70
67182;DHT22;54114;53.524;49.396;2023-02-01T10:55:35;6.80;36.40
67182;DHT22;54114;53.524;49.396;2023-02-01T10:58:03;6.80;36.30
67182;DHT22;54114;53.524;49.396;2023-02-01T11:01:06;6.90;36.30
67182;DHT22;54114;53.524;49.396;2023-02-01T11:06:22;7.20;36.00
67182;DHT22;54114;53.524;49.396;2023-02-01T11:14:37;7.50;35.70
67182;DHT22;54114;53.524;49.396;2023-02-01T11:17:12;7.50;35.20
67182;DHT22;54114;53.524;49.396;2023-02-01T11:20:21;7.50;35.10
67182;DHT22;54114;53.524;49.396;2023-02-01T11:22:59;7.50;34.80
67182;DHT22;54114;53.524;49.396;2023-02-01T11:25:32;7.40;34.50
67182;DHT22;54114;53.524;49.396;2023-02-01T11:28:32;7.40;34.70
67182;DHT22;54114;53.524;49.396;2023-02-01T11:31:00;7.30;34.20
67182;DHT22;54114;53.524;49.396;2023-02-01T11:33:30;7.30;34.20
67182;DHT22;54114;53.524;49.396;2023-02-01T11:36:10;7.30;33.90
67182;DHT22;54114;53.524;49.396;2023-02-01T11:38:45;7.20;34.10
67182;DHT22;54114;53.524;49.396;2023-02-01T11:44:26;6.90;33.70
67182;DHT22;54114;53.524;49.396;2023-02-01T11:47:19;6.70;33.90
67182;DHT22;54114;53.524;49.396;2023-02-01T11:49:46;6.60;33.90
67182;DHT22;54114;53.524;49.396;2023-02-01T11:57:59;6.30;34.20
67182;DHT22;54114;53.524;49.396;2023-02-01T12:09:06;5.90;34.70
67182;DHT22;54114;53.524;49.396;2023-02-01T12:19:54;6.10;34.50
67182;DHT22;54114;53.524;49.396;2023-02-01T12:25:40;6.40;34.70
67182;DHT22;54114;53.524;49.396;2023-02-01T12:31:29;6.30;34.00
67182;DHT22;54114;53.524;49.396;2023-02-01T12:39:24;5.90;34.50
67182;DHT22;54114;53.524;49.396;2023-02-01T12:43:00;5.80;34.60
67182;DHT22;54114;53.524;49.396;2023-02-01T12:47:37;5.50;34.40
67182;DHT22;54114;53.524;49.396;2023-02-01T12:50:56;5.40;34.60
67182;DHT22;54114;53.524;49.396;2023-02-01T12:53:35;5.20;34.70
67182;DHT22;54114;53.524;49.396;2023-02-01T12:56:52;5.00;34.90
67182;DHT22;54114;53.524;49.396;2023-02-01T13:02:00;4.50;35.30
67182;DHT22;54114;53.524;49.396;2023-02-01T13:07:26;4.00;35.80
67182;DHT22;54114;53.524;49.396;2023-02-01T13:10:01;3.80;36.10
67182;DHT22;54114;53.524;49.396;2023-02-01T13:12:36;3.60;36.40
67182;DHT22;54114;53.524;49.396;2023-02-01T13:15:09;3.40;36.80
67182;DHT22;54114;53.524;49.396;2023-02-01T13:17:39;3.20;37.10
67182;DHT22;54114;53.524;49.396;2023-02-01T13:20:13;3.00;37.40
67182;DHT22;54114;53.524;49.396;2023-02-01T13:22:46;2.80;37.70
67182;DHT22;54114;53.524;49.396;2023-02-01T13:25:28;2.60;38.10
67182;DHT22;54114;53.524;49.396;2023-02-01T13:28:03;2.50;38.40
67182;DHT22;54114;53.524;49.396;2023-02-01T13:31:16;2.30;38.60
67182;DHT22;54114;53.524;49.396;2023-02-01T13:42:00;1.70;39.60
67182;DHT22;54114;53.524;49.396;2023-02-01T13:44:39;1.60;39.90
67182;DHT22;54114;53.524;49.396;2023-02-01T13:49:50;1.40;40.50
67182;DHT22;54114;53.524;49.396;2023-02-01T13:52:35;1.30;40.80
67182;DHT22;54114;53.524;49.396;2023-02-01T13:55:14;1.10;40.80
67182;DHT22;54114;53.524;49.396;2023-02-01T13:57:52;1.00;41.70
67182;DHT22;54114;53.524;49.396;2023-02-01T14:00:36;1.00;41.30
67182;DHT22;54114;53.524;49.396;2023-02-01T14:03:12;0.80;41.50
67182;DHT22;54114;53.524;49.396;2023-02-01T14:08:12;0.70;42.70
67182;DHT22;54114;53.524;49.396;2023-02-01T14:11:03;0.60;42.10
67182;DHT22;54114;53.524;49.396;2023-02-01T14:13:55;0.50;42.30
67182;DHT22;54114;53.524;49.396;2023-02-01T14:19:31;0.30;42.60
67182;DHT22;54114;53.524;49.396;2023-02-01T14:24:49;0.10;42.70
67182;DHT22;54114;53.524;49.396;2023-02-01T14:27:29;0.10;42.70
67182;DHT22;54114;53.524;49.396;2023-02-01T14:29:57;0.00;42.70
67182;DHT22;54114;53.524;49.396;2023-02-01T14:32:34;-0.10;42.80
67182;DHT22;54114;53.524;49.396;2023-02-01T14:35:07;-0.20;42.80
67182;DHT22;54114;53.524;49.396;2023-02-01T14:37:43;-0.30;42.80
67182;DHT22;54114;53.524;49.396;2023-02-01T14:40:16;-0.40;43.00
67182;DHT22;54114;53.524;49.396;2023-02-01T14:42:52;-0.40;43.00
67182;DHT22;54114;53.524;49.396;2023-02-01T14:51:07;-0.60;43.50
67182;DHT22;54114;53.524;49.396;2023-02-01T14:53:35;-0.70;43.50
67182;DHT22;54114;53.524;49.396;2023-02-01T14:58:36;-0.80;43.70
67182;DHT22;54114;53.524;49.396;2023-02-01T15:01:15;-0.90;43.80
67182;DHT22;54114;53.524;49.396;2023-02-01T15:06:29;-1.00;43.90
67182;DHT22;54114;53.524;49.396;2023-02-01T15:08:59;-1.00;43.90
67182;DHT22;54114;53.524;49.396;2023-02-01T15:14:23;-1.10;43.90
67182;DHT22;54114;53.524;49.396;2023-02-01T15:16:56;-1.10;43.90
67182;DHT22;54114;53.524;49.396;2023-02-01T15:19:40;-1.20;43.90
67182;DHT22;54114;53.524;49.396;2023-02-01T15:22:28;-1.20;43.90
67182;DHT22;54114;53.524;49.396;2023-02-01T15:24:59;-1.30;44.00
67182;DHT22;54114;53.524;49.396;2023-02-01T15:27:44;-1.30;44.10
67182;DHT22;54114;53.524;49.396;2023-02-01T15:30:21;-1.40;44.10
67182;DHT22;54114;53.524;49.396;2023-02-01T15:32:49;-1.40;44.20
67182;DHT22;54114;53.524;49.396;2023-02-01T15:35:41;-1.40;44.30
67182;DHT22;54114;53.524;49.396;2023-02-01T15:41:13;-1.50;44.40
67182;DHT22;54114;53.524;49.396;2023-02-01T15:44:03;-1.60;44.50
67182;DHT22;54114;53.524;49.396;2023-02-01T15:46:40;-1.60;44.80
67182;DHT22;54114;53.524;49.396;2023-02-01T15:49:30;-1.70;44.90
67182;DHT22;54114;53.524;49.396;2023-02-01T15:51:58;-1.80;45.00
67182;DHT22;54114;53.524;49.396;2023-02-01T15:54:40;-1.80;45.10
67182;DHT22;54114;53.524;49.396;2023-02-01T15:57:09;-1.80;45.20
67182;DHT22;54114;53.524;49.396;2023-02-01T15:59:42;-1.90;45.20
67182;DHT22;54114;53.524;49.396;2023-02-01T16:02:26;-1.90;45.20
67182;DHT22;54114;53.524;49.396;2023-02-01T16:05:25;-2.00;45.30
67182;DHT22;54114;53.524;49.396;2023-02-01T16:08:21;-2.00;45.40
67182;DHT22;54114;53.524;49.396;2023-02-01T16:13:35;-2.20;45.50
67182;DHT22;54114;53.524;49.396;2023-02-01T16:16:02;-2.30;45.80
67182;DHT22;54114;53.524;49.396;2023-02-01T16:18:45;-2.40;46.00
67182;DHT22;54114;53.524;49.396;2023-02-01T16:21:17;-2.50;46.30
67182;DHT22;54114;53.524;49.396;2023-02-01T16:23:47;-2.50;46.40
67182;DHT22;54114;53.524;49.396;2023-02-01T16:26:16;-2.50;46.60
67182;DHT22;54114;53.524;49.396;2023-02-01T16:28:43;-2.60;46.60
67182;DHT22;54114;53.524;49.396;2023-02-01T16:31:13;-2.60;46.70
67182;DHT22;54114;53.524;49.396;2023-02-01T16:33:45;-2.70;46.90
67182;DHT22;54114;53.524;49.396;2023-02-01T16:36:13;-2.70;47.20
67182;DHT22;54114;53.524;49.396;2023-02-01T16:38:40;-2.80;47.40
67182;DHT22;54114;53.524;49.396;2023-02-01T16:41:20;-2.80;47.60
67182;DHT22;54114;53.524;49.396;2023-02-01T16:44:11;-2.80;47.80
67182;DHT22;54114;53.524;49.396;2023-02-01T16:46:44;-2.90;47.80
67182;DHT22;54114;53.524;49.396;2023-02-01T16:49:29;-2.90;47.80
67182;DHT22;54114;53.524;49.396;2023-02-01T16:52:03;-2.90;47.90
67182;DHT22;54114;53.524;49.396;2023-02-01T16:54:47;-2.90;48.00
67182;DHT22;54114;53.524;49.396;2023-02-01T16:57:15;-3.00;48.00
67182;DHT22;54114;53.524;49.396;2023-02-01T16:59:42;-3.00;48.10
67182;DHT22;54114;53.524;49.396;2023-02-01T17:02:12;-3.10;48.00
67182;DHT22;54114;53.524;49.396;2023-02-01T17:04:40;-3.10;48.20
67182;DHT22;54114;53.524;49.396;2023-02-01T17:07:18;-3.20;48.20
67182;DHT22;54114;53.524;49.396;2023-02-01T17:09:51;-3.20;48.30
67182;DHT22;54114;53.524;49.396;2023-02-01T17:12:25;-3.20;48.50
67182;DHT22;54114;53.524;49.396;2023-02-01T17:14:52;-3.30;48.40
67182;DHT22;54114;53.524;49.396;2023-02-01T17:17:19;-3.30;48.50
67182;DHT22;54114;53.524;49.396;2023-02-01T17:19:57;-3.40;48.50
67182;DHT22;54114;53.524;49.396;2023-02-01T17:22:24;-3.40;48.60
67182;DHT22;54114;53.524;49.396;2023-02-01T17:24:56;-3.50;48.60
67182;DHT22;54114;53.524;49.396;2023-02-01T17:27:22;-3.50;48.80
67182;DHT22;54114;53.524;49.396;2023-02-01T17:30:00;-3.60;48.90
67182;DHT22;54114;53.524;49.396;2023-02-01T17:32:52;-3.50;49.00
67182;DHT22;54114;53.524;49.396;2023-02-01T17:35:21;-3.60;49.00
67182;DHT22;54114;53.524;49.396;2023-02-01T17:37:48;-3.60;49.00
67182;DHT22;54114;53.524;49.396;2023-02-01T17:40:15;-3.70;49.10
67182;DHT22;54114;53.524;49.396;2023-02-01T17:42:49;-3.70;49.30
67182;DHT22;54114;53.524;49.396;2023-02-01T17:45:21;-3.70;49.50
67182;DHT22;54114;53.524;49.396;2023-02-01T17:48:05;-3.80;49.60
67182;DHT22;54114;53.524;49.396;2023-02-01T17:50:34;-3.80;49.60
67182;DHT22;54114;53.524;49.396;2023-02-01T17:53:01;-3.80;49.90
67182;DHT22;54114;53.524;49.396;2023-02-01T17:55:31;-3.90;50.10
67182;DHT22;54114;53.524;49.396;2023-02-01T17:57:58;-3.90;50.20
67182;DHT22;54114;53.524;49.396;2023-02-01T18:00:31;-4.00;50.10
67182;DHT22;54114;53.524;49.396;2023-02-01T18:02:57;-4.00;50.20
67182;DHT22;54114;53.524;49.396;2023-02-01T18:05:38;-4.00;50.30
67182;DHT22;54114;53.524;49.396;2023-02-01T18:08:06;-4.10;50.30
67182;DHT22;54114;53.524;49.396;2023-02-01T18:10:33;-4.10;50.40
67182;DHT22;54114;53.524;49.396;2023-02-01T18:13:00;-4.10;50.40
67182;DHT22;54114;53.524;49.396;2023-02-01T18:15:28;-4.10;50.40
67182;DHT22;54114;53.524;49.396;2023-02-01T18:17:55;-4.20;50.40
67182;DHT22;54114;53.524;49.396;2023-02-01T18:20:23;-4.30;50.40